createdAt,value
2023-04-26T00:01:37.869Z,101488.34
2023-04-26T00:04:05.058Z,101483.06
2023-04-26T00:06:32.412Z,101475.97
2023-04-26T00:08:59.625Z,101483.00
2023-04-26T00:11:26.514Z,101494.31
2023-04-26T00:13:55.205Z,101494.59
2023-04-26T00:16:22.140Z,101485.22
2023-04-26T00:18:49.734Z,101474.94
2023-04-26T00:21:16.694Z,101490.22
2023-04-26T00:23:43.652Z,101495.53
2023-04-26T00:26:11.946Z,101473.53
2023-04-26T00:28:41.220Z,101479.09
2023-04-26T00:31:08.124Z,101496.28
2023-04-26T00:33:35.300Z,101493.56
2023-04-26T00:36:02.222Z,101491.22
2023-04-26T00:38:29.191Z,101496.50
2023-04-26T00:40:56.281Z,101496.16
2023-04-26T00:43:23.345Z,101499.34
2023-04-26T00:45:50.513Z,101487.69
2023-04-26T00:48:18.519Z,101485.28
2023-04-26T00:50:45.797Z,101489.06
2023-04-26T00:53:14.770Z,101479.03
2023-04-26T00:55:43.491Z,101475.56
2023-04-26T00:58:11.164Z,101492.50
2023-04-26T01:00:38.235Z,101497.78
2023-04-26T01:03:05.533Z,101493.13
2023-04-26T01:05:32.682Z,101494.03
2023-04-26T01:08:02.430Z,101498.41
2023-04-26T01:10:29.862Z,101502.31
2023-04-26T01:12:58.233Z,101497.03
2023-04-26T01:15:28.377Z,101500.09
2023-04-26T01:17:55.308Z,101499.09
2023-04-26T01:20:22.458Z,101487.97
2023-04-26T01:22:49.223Z,101496.94
2023-04-26T01:25:17.536Z,101502.81
2023-04-26T01:27:44.630Z,101500.59
2023-04-26T01:30:12.722Z,101497.13
2023-04-26T01:32:39.606Z,101500.00
2023-04-26T01:35:07.628Z,101499.78
2023-04-26T01:37:34.448Z,101499.47
2023-04-26T01:40:01.670Z,101509.13
2023-04-26T01:42:29.364Z,101495.94
2023-04-26T01:44:56.445Z,101498.25
2023-04-26T01:47:23.346Z,101494.81
2023-04-26T01:49:50.247Z,101496.47
2023-04-26T01:52:16.994Z,101514.25
2023-04-26T01:54:44.226Z,101521.94
2023-04-26T01:57:11.172Z,101538.06
2023-04-26T01:59:37.979Z,101526.66
2023-04-26T02:02:06.077Z,101541.75
2023-04-26T02:04:33.017Z,101537.91
2023-04-26T02:06:59.884Z,101536.56
2023-04-26T02:09:26.723Z,101523.16
2023-04-26T02:11:53.688Z,101519.94
2023-04-26T02:14:20.704Z,101511.53
2023-04-26T02:16:50.751Z,101522.09
2023-04-26T02:19:17.744Z,101513.22
2023-04-26T02:21:56.244Z,101516.34
2023-04-26T02:24:23.465Z,101513.09
2023-04-26T02:26:53.786Z,101511.63
2023-04-26T02:29:29.479Z,101511.72
2023-04-26T02:32:10.843Z,101513.69
2023-04-26T02:34:37.804Z,101513.16
2023-04-26T02:37:04.949Z,101506.31
2023-04-26T02:39:34.315Z,101518.69
2023-04-26T02:42:01.181Z,101515.66
2023-04-26T02:44:32.240Z,101517.91
2023-04-26T02:46:59.277Z,101517.34
2023-04-26T02:49:31.076Z,101508.84
2023-04-26T02:52:00.229Z,101514.78
2023-04-26T02:54:27.261Z,101519.56
2023-04-26T02:56:55.529Z,101517.63
2023-04-26T02:59:22.563Z,101520.34
2023-04-26T03:01:49.678Z,101504.75
2023-04-26T03:04:44.400Z,101511.19
2023-04-26T03:07:11.564Z,101514.66
2023-04-26T03:09:41.664Z,101508.38
2023-04-26T03:12:09.071Z,101510.31
2023-04-26T03:14:36.794Z,101511.09
2023-04-26T03:17:03.668Z,101516.53
2023-04-26T03:19:33.053Z,101452.72
2023-04-26T03:22:02.149Z,101513.16
2023-04-26T03:24:39.342Z,101506.59
2023-04-26T03:27:06.398Z,101510.53
2023-04-26T03:29:33.561Z,101508.88
2023-04-26T03:32:00.639Z,101510.31
2023-04-26T03:34:29.778Z,101511.06
2023-04-26T03:36:57.240Z,101513.00
2023-04-26T03:39:24.272Z,101520.34
2023-04-26T03:41:53.903Z,101509.69
2023-04-26T03:44:20.886Z,101511.94
2023-04-26T03:46:47.933Z,101510.31
2023-04-26T03:49:14.922Z,101505.22
2023-04-26T03:51:44.052Z,101512.34
2023-04-26T03:54:11.446Z,101512.41
2023-04-26T03:56:41.594Z,101513.91
2023-04-26T03:59:10.121Z,101517.41
2023-04-26T04:01:36.916Z,101514.56
2023-04-26T04:04:04.045Z,101513.88
2023-04-26T04:06:31.345Z,101516.75
2023-04-26T04:08:58.258Z,101513.06
2023-04-26T04:11:25.597Z,101507.94
2023-04-26T04:13:52.495Z,101531.31
2023-04-26T04:16:19.461Z,101528.50
2023-04-26T04:18:46.674Z,101529.50
2023-04-26T04:21:13.677Z,101545.19
2023-04-26T04:23:40.588Z,101543.59
2023-04-26T04:26:07.468Z,101540.50
2023-04-26T04:28:34.685Z,101546.28
2023-04-26T04:31:04.829Z,101549.31
2023-04-26T04:33:31.697Z,101556.28
2023-04-26T04:35:58.876Z,101542.34
2023-04-26T04:38:28.149Z,101548.44
2023-04-26T04:40:58.476Z,101546.13
2023-04-26T04:43:25.518Z,101535.38
2023-04-26T04:45:52.558Z,101543.25
2023-04-26T04:48:21.042Z,101541.66
2023-04-26T04:50:48.100Z,101540.31
2023-04-26T04:53:18.008Z,101535.34
2023-04-26T04:55:45.172Z,101535.59
2023-04-26T04:58:12.556Z,101532.06
2023-04-26T05:00:39.404Z,101528.59
2023-04-26T05:03:08.787Z,101529.13
2023-04-26T05:05:36.294Z,101538.03
2023-04-26T05:08:03.226Z,101533.66
2023-04-26T05:10:30.291Z,101532.50
2023-04-26T05:12:59.503Z,101533.44
2023-04-26T05:15:26.624Z,101532.22
2023-04-26T05:17:55.891Z,101523.50
2023-04-26T05:20:23.227Z,101518.59
2023-04-26T05:22:50.207Z,101541.56
2023-04-26T05:25:20.233Z,101557.66
2023-04-26T05:27:49.450Z,101548.47
2023-04-26T05:30:17.050Z,101544.28
2023-04-26T05:32:44.135Z,101538.19
2023-04-26T05:35:11.242Z,101544.38
2023-04-26T05:37:40.111Z,101542.47
2023-04-26T05:40:09.033Z,101555.66
2023-04-26T05:42:38.669Z,101532.94
2023-04-26T05:45:06.265Z,101541.91
2023-04-26T05:47:33.246Z,101538.72
2023-04-26T05:50:00.066Z,101527.38
2023-04-26T05:52:32.245Z,101517.56
2023-04-26T05:54:59.522Z,101527.53
2023-04-26T05:57:26.390Z,101537.66
2023-04-26T05:59:53.228Z,101541.66
2023-04-26T06:02:20.275Z,101543.88
2023-04-26T06:04:47.560Z,101521.66
2023-04-26T06:07:14.383Z,101522.91
2023-04-26T06:09:41.342Z,101531.72
2023-04-26T06:12:08.361Z,101528.94
2023-04-26T06:14:35.328Z,101520.13
2023-04-26T06:17:02.150Z,101522.38
2023-04-26T06:19:29.070Z,101522.75
2023-04-26T06:21:57.492Z,101517.44
2023-04-26T06:24:27.073Z,101510.03
2023-04-26T06:26:54.102Z,101511.19
2023-04-26T06:29:24.361Z,101514.00
2023-04-26T06:31:51.418Z,101504.94
2023-04-26T06:34:18.259Z,101515.13
2023-04-26T06:36:50.690Z,101512.25
2023-04-26T06:39:18.018Z,101521.72
2023-04-26T06:41:45.100Z,101530.69
2023-04-26T06:44:12.280Z,101519.78
2023-04-26T06:46:39.295Z,101528.56
2023-04-26T06:49:06.393Z,101524.03
2023-04-26T06:51:33.562Z,101527.22
2023-04-26T06:54:01.384Z,101532.34
2023-04-26T06:56:28.386Z,101517.03
2023-04-26T06:59:04.108Z,101522.53
2023-04-26T07:01:34.247Z,101526.06
2023-04-26T07:04:03.735Z,101521.50
2023-04-26T07:06:31.688Z,101515.16
2023-04-26T07:08:59.573Z,101523.41
2023-04-26T07:11:27.729Z,101519.00
2023-04-26T07:13:55.879Z,101527.81
2023-04-26T07:16:23.348Z,101524.22
2023-04-26T07:18:50.268Z,101510.47
2023-04-26T07:21:17.332Z,101516.03
2023-04-26T07:23:44.616Z,101525.19
2023-04-26T07:26:12.258Z,101534.84
2023-04-26T07:28:41.627Z,101561.63
2023-04-26T07:31:10.112Z,101618.97
2023-04-26T07:33:38.357Z,101612.19
2023-04-26T07:36:06.054Z,101619.03
2023-04-26T07:38:32.838Z,101617.72
2023-04-26T07:41:01.582Z,101598.72
2023-04-26T07:43:31.565Z,101596.50
2023-04-26T07:46:02.460Z,101596.66
2023-04-26T07:48:30.851Z,101594.75
2023-04-26T07:50:57.942Z,101589.66
2023-04-26T07:53:24.923Z,101591.09
2023-04-26T07:55:51.896Z,101598.56
2023-04-26T07:58:19.603Z,101601.34
2023-04-26T08:00:46.626Z,101583.38
2023-04-26T08:03:18.305Z,101569.22
2023-04-26T08:05:45.680Z,101572.47
2023-04-26T08:08:12.989Z,101572.56
2023-04-26T08:10:43.025Z,101574.66
2023-04-26T08:13:10.074Z,101570.34
2023-04-26T08:15:37.039Z,101566.81
2023-04-26T08:18:04.561Z,101561.66
2023-04-26T08:20:32.936Z,101578.97
2023-04-26T08:23:00.227Z,101570.69
2023-04-26T08:25:30.025Z,101569.78
2023-04-26T08:27:57.131Z,101561.25
2023-04-26T08:30:24.157Z,101564.59
2023-04-26T08:32:53.856Z,101555.34
2023-04-26T08:35:22.021Z,101548.53
2023-04-26T08:37:48.883Z,101558.81
2023-04-26T08:40:23.972Z,101558.97
2023-04-26T08:42:52.812Z,101556.50
2023-04-26T08:45:25.538Z,101564.06
2023-04-26T08:48:04.532Z,101566.06
2023-04-26T08:50:34.093Z,101540.22
2023-04-26T08:53:01.079Z,101566.13
2023-04-26T08:55:28.439Z,101558.66
2023-04-26T08:57:56.410Z,101578.84
2023-04-26T09:00:23.860Z,101590.25
2023-04-26T09:02:53.381Z,101591.56
2023-04-26T09:05:24.997Z,101584.09
2023-04-26T09:07:56.965Z,101578.31
2023-04-26T09:10:24.201Z,101565.75
2023-04-26T09:12:57.536Z,101566.00
2023-04-26T09:15:26.597Z,101558.34
2023-04-26T09:17:55.856Z,101547.47
2023-04-26T09:20:31.512Z,101550.56
2023-04-26T09:23:11.777Z,101560.06
2023-04-26T09:25:38.779Z,101566.53
2023-04-26T09:28:20.123Z,101570.81
2023-04-26T09:30:47.425Z,101573.31
2023-04-26T09:33:15.016Z,101598.59
2023-04-26T09:35:43.142Z,101598.47
2023-04-26T09:38:18.203Z,101590.81
2023-04-26T09:40:51.616Z,101600.09
2023-04-26T09:43:20.131Z,101595.75
2023-04-26T09:45:51.982Z,101600.50
2023-04-26T09:48:23.173Z,101608.75
2023-04-26T09:50:52.807Z,101610.69
2023-04-26T09:53:40.101Z,101601.13
2023-04-26T09:56:08.734Z,101596.50
2023-04-26T09:58:38.789Z,101585.22
2023-04-26T10:01:07.521Z,101579.63
2023-04-26T10:03:38.704Z,101581.88
2023-04-26T10:06:06.169Z,101577.03
2023-04-26T10:08:34.976Z,101575.53
2023-04-26T10:11:04.569Z,101573.44
2023-04-26T10:13:35.919Z,101575.00
2023-04-26T10:16:03.429Z,101582.03
2023-04-26T10:18:31.789Z,101599.88
2023-04-26T10:21:07.743Z,101618.44
2023-04-26T10:23:35.372Z,101628.50
2023-04-26T10:26:02.345Z,101639.84
2023-04-26T10:28:44.899Z,101637.69
2023-04-26T10:31:12.611Z,101628.91
2023-04-26T10:33:39.517Z,101613.38
2023-04-26T10:36:10.868Z,101608.72
2023-04-26T10:38:58.975Z,101615.19
2023-04-26T10:41:43.979Z,101590.06
2023-04-26T10:44:41.503Z,101591.47
2023-04-26T10:47:22.438Z,101599.25
2023-04-26T10:49:49.560Z,101611.44
2023-04-26T10:52:20.667Z,101614.88
2023-04-26T10:54:58.711Z,101628.91
2023-04-26T10:57:51.447Z,101622.69
2023-04-26T11:00:21.352Z,101617.53
2023-04-26T11:03:05.026Z,101614.03
2023-04-26T11:05:36.681Z,101624.88
2023-04-26T11:08:25.182Z,101588.19
2023-04-26T11:10:58.937Z,101598.88
2023-04-26T11:13:26.092Z,101597.78
2023-04-26T11:15:54.708Z,101602.16
2023-04-26T11:18:22.560Z,101615.88
2023-04-26T11:20:49.832Z,101627.28
2023-04-26T11:23:20.057Z,101559.72
2023-04-26T11:25:47.368Z,101597.38
2023-04-26T11:28:14.376Z,101590.28
2023-04-26T11:30:41.610Z,101591.38
2023-04-26T11:33:25.343Z,101594.25
2023-04-26T11:35:53.719Z,101586.22
2023-04-26T11:38:25.137Z,101586.69
2023-04-26T11:41:03.300Z,101595.56
2023-04-26T11:43:32.961Z,101602.44
2023-04-26T11:46:07.024Z,101611.47
2023-04-26T11:48:36.648Z,101614.78
2023-04-26T11:51:05.749Z,101611.72
2023-04-26T11:53:38.187Z,101598.84
2023-04-26T11:56:18.410Z,101610.97
2023-04-26T11:58:52.167Z,101596.72
2023-04-26T12:01:27.776Z,101603.66
2023-04-26T12:03:59.931Z,101619.97
2023-04-26T12:06:42.911Z,101623.44
2023-04-26T12:09:11.717Z,101624.22
2023-04-26T12:11:39.527Z,101638.44
2023-04-26T12:14:08.107Z,101649.91
2023-04-26T12:16:40.339Z,101660.31
2023-04-26T12:19:09.193Z,101665.03
2023-04-26T12:21:48.463Z,101665.78
2023-04-26T12:24:37.126Z,101658.13
2023-04-26T12:27:07.397Z,101653.09
2023-04-26T12:29:35.043Z,101651.94
2023-04-26T12:32:02.895Z,101646.28
2023-04-26T12:34:32.731Z,101649.16
2023-04-26T12:37:02.405Z,101632.53
2023-04-26T12:39:29.217Z,101644.13
2023-04-26T12:41:56.254Z,101639.50
2023-04-26T12:44:23.265Z,101637.69
2023-04-26T12:46:51.589Z,101643.97
2023-04-26T12:49:18.461Z,101652.25
2023-04-26T12:51:46.507Z,101641.63
2023-04-26T12:54:13.751Z,101637.59
2023-04-26T12:56:46.815Z,101651.69
2023-04-26T12:59:13.875Z,101654.28
2023-04-26T13:01:41.595Z,101649.34
2023-04-26T13:04:09.329Z,101644.31
2023-04-26T13:06:36.596Z,101657.09
2023-04-26T13:09:03.996Z,101646.88
2023-04-26T13:11:31.176Z,101657.38
2023-04-26T13:14:00.791Z,101653.94
2023-04-26T13:16:27.853Z,101656.50
2023-04-26T13:18:55.808Z,101665.47
2023-04-26T13:21:23.063Z,101666.25
2023-04-26T13:23:50.063Z,101667.25
2023-04-26T13:26:18.492Z,101674.34
2023-04-26T13:28:45.345Z,101685.31
2023-04-26T13:31:12.386Z,101673.44
2023-04-26T13:33:39.400Z,101685.97
2023-04-26T13:36:06.600Z,101687.13
2023-04-26T13:38:33.703Z,101683.06
2023-04-26T13:41:00.822Z,101675.59
2023-04-26T13:43:27.842Z,101674.56
2023-04-26T13:45:54.941Z,101679.66
2023-04-26T13:48:22.250Z,101674.09
2023-04-26T13:50:49.352Z,101672.47
2023-04-26T13:53:16.489Z,101676.81
2023-04-26T13:55:43.778Z,101674.88
2023-04-26T13:58:10.765Z,101688.69
2023-04-26T14:00:39.146Z,101694.88
2023-04-26T14:03:06.747Z,101695.53
2023-04-26T14:05:35.070Z,101689.59
2023-04-26T14:08:02.683Z,101682.66
2023-04-26T14:10:29.881Z,101685.28
2023-04-26T14:12:56.893Z,101689.28
2023-04-26T14:15:24.029Z,101703.78
2023-04-26T14:17:51.495Z,101698.34
2023-04-26T14:20:18.590Z,101695.91
2023-04-26T14:22:45.819Z,101694.09
2023-04-26T14:25:12.797Z,101684.13
2023-04-26T14:27:40.620Z,101695.91
2023-04-26T14:30:08.088Z,101703.50
2023-04-26T14:32:35.348Z,101693.44
2023-04-26T14:35:02.350Z,101701.53
2023-04-26T14:37:29.429Z,101697.25
2023-04-26T14:39:56.370Z,101698.50
2023-04-26T14:42:23.604Z,101705.88
2023-04-26T14:44:50.549Z,101700.66
2023-04-26T14:47:17.564Z,101703.38
2023-04-26T14:49:44.728Z,101698.78
2023-04-26T14:52:11.970Z,101703.13
2023-04-26T14:54:43.646Z,101705.84
2023-04-26T14:57:10.844Z,101696.88
2023-04-26T14:59:37.853Z,101688.81
2023-04-26T15:02:05.395Z,101711.19
2023-04-26T15:04:32.804Z,101708.94
2023-04-26T15:07:02.900Z,101730.09
2023-04-26T15:09:30.820Z,101712.00
2023-04-26T15:11:57.938Z,101714.75
2023-04-26T15:14:24.947Z,101716.91
2023-04-26T15:16:51.878Z,101711.41
2023-04-26T15:19:18.812Z,101703.03
2023-04-26T15:21:45.650Z,101711.56
2023-04-26T15:24:12.478Z,101709.53
2023-04-26T15:26:39.807Z,101713.19
2023-04-26T15:29:06.742Z,101716.50
2023-04-26T15:31:34.520Z,101719.69
2023-04-26T15:34:02.682Z,101710.59
2023-04-26T15:36:29.635Z,101711.56
2023-04-26T15:38:56.827Z,101715.81
2023-04-26T15:41:33.349Z,101722.03
2023-04-26T15:44:00.355Z,101716.97
2023-04-26T15:46:27.494Z,101727.47
2023-04-26T15:48:54.490Z,101725.88
2023-04-26T15:51:21.729Z,101731.88
2023-04-26T15:53:51.263Z,101733.56
2023-04-26T15:56:18.217Z,101741.47
2023-04-26T15:58:46.459Z,101736.53
2023-04-26T16:01:16.645Z,101736.22
2023-04-26T16:03:47.305Z,101737.97
2023-04-26T16:06:14.651Z,101728.44
2023-04-26T16:08:41.753Z,101731.25
2023-04-26T16:11:08.883Z,101741.06
2023-04-26T16:13:35.782Z,101736.09
2023-04-26T16:16:08.837Z,101744.59
2023-04-26T16:18:36.215Z,101734.16
2023-04-26T16:21:10.908Z,101738.59
2023-04-26T16:23:40.571Z,101739.75
2023-04-26T16:26:08.450Z,101738.78
2023-04-26T16:28:36.148Z,101732.50
2023-04-26T16:31:03.247Z,101733.91
2023-04-26T16:33:30.506Z,101728.81
2023-04-26T16:35:57.505Z,101733.94
2023-04-26T16:38:24.974Z,101732.59
2023-04-26T16:40:58.875Z,101745.09
2023-04-26T16:43:29.721Z,101747.28
2023-04-26T16:46:08.709Z,101740.44
2023-04-26T16:48:37.536Z,101748.38
2023-04-26T16:51:07.636Z,101747.59
2023-04-26T16:53:36.204Z,101750.53
2023-04-26T16:56:06.299Z,101701.94
2023-04-26T16:58:33.092Z,101755.19
2023-04-26T17:01:00.131Z,101750.38
2023-04-26T17:03:28.068Z,101754.06
2023-04-26T17:05:54.977Z,101765.28
2023-04-26T17:08:24.029Z,101747.25
2023-04-26T17:10:52.073Z,101760.00
2023-04-26T17:13:19.471Z,101757.56
2023-04-26T17:15:46.659Z,101760.56
2023-04-26T17:18:13.630Z,101755.72
2023-04-26T17:20:41.402Z,101760.97
2023-04-26T17:23:08.990Z,101755.84
2023-04-26T17:25:38.676Z,101773.69
2023-04-26T17:28:05.569Z,101765.31
2023-04-26T17:30:32.722Z,101765.41
2023-04-26T17:33:02.738Z,101762.91
2023-04-26T17:35:29.716Z,101761.81
2023-04-26T17:37:56.536Z,101772.59
2023-04-26T17:40:23.315Z,101771.25
2023-04-26T17:42:51.392Z,101751.06
2023-04-26T17:45:18.837Z,101765.31
2023-04-26T17:47:46.528Z,101767.50
2023-04-26T17:50:13.706Z,101769.75
2023-04-26T17:52:40.739Z,101767.00
2023-04-26T17:55:10.217Z,101765.41
2023-04-26T17:57:37.507Z,101773.00
2023-04-26T18:00:06.902Z,101781.91
2023-04-26T18:02:34.680Z,101783.88
2023-04-26T18:05:01.776Z,101788.31
2023-04-26T18:07:28.663Z,101785.59
2023-04-26T18:09:58.782Z,101783.94
2023-04-26T18:12:28.727Z,101788.38
2023-04-26T18:14:55.606Z,101786.97
2023-04-26T18:17:22.897Z,101787.25
2023-04-26T18:19:49.961Z,101785.59
2023-04-26T18:22:17.141Z,101795.53
2023-04-26T18:24:44.589Z,101794.72
2023-04-26T18:27:13.224Z,101793.88
2023-04-26T18:29:40.158Z,101793.59
2023-04-26T18:32:07.153Z,101791.94
2023-04-26T18:34:34.047Z,101786.72
2023-04-26T18:37:01.282Z,101790.00
2023-04-26T18:39:28.511Z,101778.06
2023-04-26T18:42:00.355Z,101796.31
2023-04-26T18:44:27.434Z,101784.34
2023-04-26T18:46:57.561Z,101810.56
2023-04-26T18:49:27.097Z,101811.34
2023-04-26T18:51:54.776Z,101812.34
2023-04-26T18:54:21.794Z,101822.00
2023-04-26T18:56:48.645Z,101822.50
2023-04-26T18:59:18.554Z,101776.09
2023-04-26T19:01:45.328Z,101821.59
2023-04-26T19:04:15.445Z,101827.31
2023-04-26T19:06:42.388Z,101823.69
2023-04-26T19:09:17.076Z,101825.38
2023-04-26T19:11:46.903Z,101825.22
2023-04-26T19:14:14.104Z,101826.50
2023-04-26T19:16:41.068Z,101835.31
2023-04-26T19:19:08.001Z,101832.28
2023-04-26T19:21:35.531Z,101838.88
2023-04-26T19:24:02.576Z,101808.09
2023-04-26T19:26:29.549Z,101836.06
2023-04-26T19:28:56.608Z,101849.34
2023-04-26T19:31:23.696Z,101845.63
2023-04-26T19:33:50.816Z,101841.78
2023-04-26T19:36:17.673Z,101839.66
2023-04-26T19:38:44.846Z,101841.78
2023-04-26T19:41:11.696Z,101843.59
2023-04-26T19:43:41.001Z,101848.41
2023-04-26T19:46:12.352Z,101850.53
2023-04-26T19:48:39.930Z,101855.78
2023-04-26T19:51:07.325Z,101854.59
2023-04-26T19:53:35.501Z,101849.06
2023-04-26T19:56:03.501Z,101829.59
2023-04-26T19:58:30.621Z,101846.81
2023-04-26T20:00:57.664Z,101837.41
2023-04-26T20:03:24.704Z,101852.09
2023-04-26T20:05:54.696Z,101846.44
2023-04-26T20:08:21.772Z,101835.09
2023-04-26T20:10:48.618Z,101848.72
2023-04-26T20:13:19.549Z,101850.81
2023-04-26T20:15:46.495Z,101848.06
2023-04-26T20:18:13.266Z,101840.47
2023-04-26T20:20:44.005Z,101844.91
2023-04-26T20:23:11.010Z,101852.22
2023-04-26T20:25:38.117Z,101861.75
2023-04-26T20:28:05.100Z,101846.47
2023-04-26T20:30:34.052Z,101847.66
2023-04-26T20:33:01.017Z,101849.03
2023-04-26T20:35:28.199Z,101858.03
2023-04-26T20:37:55.274Z,101858.69
2023-04-26T20:40:23.407Z,101853.50
2023-04-26T20:42:50.263Z,101857.66
2023-04-26T20:45:18.335Z,101855.00
2023-04-26T20:47:46.015Z,101856.06
2023-04-26T20:50:13.113Z,101859.31
2023-04-26T20:52:40.375Z,101854.19
2023-04-26T20:55:09.585Z,101857.94
2023-04-26T20:57:36.582Z,101863.59
2023-04-26T21:00:04.337Z,101872.56
2023-04-26T21:02:31.323Z,101866.94
2023-04-26T21:04:58.322Z,101870.13
2023-04-26T21:07:25.750Z,101878.88
2023-04-26T21:09:52.729Z,101875.16
2023-04-26T21:12:19.939Z,101873.66
2023-04-26T21:14:48.119Z,101874.81
2023-04-26T21:17:15.451Z,101871.47
2023-04-26T21:19:42.516Z,101877.47
2023-04-26T21:22:12.545Z,101879.91
2023-04-26T21:24:39.483Z,101874.16
2023-04-26T21:27:06.663Z,101881.09
2023-04-26T21:29:33.467Z,101883.13
2023-04-26T21:32:00.436Z,101885.19
2023-04-26T21:34:27.508Z,101881.03
2023-04-26T21:36:55.450Z,101889.63
2023-04-26T21:39:22.693Z,101883.94
2023-04-26T21:41:49.667Z,101887.09
2023-04-26T21:44:16.908Z,101880.53
2023-04-26T21:46:44.054Z,101879.41
2023-04-26T21:49:11.078Z,101886.94
2023-04-26T21:51:38.332Z,101891.06
2023-04-26T21:54:05.339Z,101896.06
2023-04-26T21:56:32.776Z,101895.09
2023-04-26T21:58:59.606Z,101891.28
2023-04-26T22:01:27.095Z,101886.56
2023-04-26T22:03:54.279Z,101901.03
2023-04-26T22:06:21.316Z,101896.91
2023-04-26T22:08:48.323Z,101898.66
2023-04-26T22:11:16.305Z,101894.75
2023-04-26T22:13:43.102Z,101899.63
2023-04-26T22:16:10.006Z,101900.28
2023-04-26T22:18:36.813Z,101900.69
2023-04-26T22:21:03.856Z,101900.09
2023-04-26T22:23:31.634Z,101895.84
2023-04-26T22:26:00.756Z,101866.88
2023-04-26T22:28:30.507Z,101890.84
2023-04-26T22:30:57.516Z,101904.59
2023-04-26T22:33:24.955Z,101905.56
2023-04-26T22:35:51.789Z,101903.06
2023-04-26T22:38:18.774Z,101907.22
2023-04-26T22:40:48.266Z,101897.16
2023-04-26T22:43:15.198Z,101899.81
2023-04-26T22:45:42.092Z,101906.53
2023-04-26T22:48:09.076Z,101910.31
2023-04-26T22:50:38.822Z,101904.16
2023-04-26T22:53:05.642Z,101908.06
2023-04-26T22:55:32.584Z,101906.78
2023-04-26T22:57:59.412Z,101905.19
2023-04-26T23:00:26.439Z,101894.53
2023-04-26T23:02:53.547Z,101912.97
2023-04-26T23:05:20.534Z,101914.53
2023-04-26T23:07:47.412Z,101915.34
2023-04-26T23:10:14.395Z,101914.84
2023-04-26T23:12:41.480Z,101908.59
2023-04-26T23:15:09.055Z,101914.94
2023-04-26T23:17:36.182Z,101917.00
2023-04-26T23:20:11.987Z,101917.84
2023-04-26T23:22:43.492Z,101916.31
2023-04-26T23:25:10.866Z,101914.03
2023-04-26T23:27:38.495Z,101915.34
2023-04-26T23:30:06.678Z,101927.78
2023-04-26T23:32:33.782Z,101920.72
2023-04-26T23:35:00.873Z,101920.28
2023-04-26T23:37:27.840Z,101933.41
2023-04-26T23:39:57.391Z,101928.59
2023-04-26T23:42:24.372Z,101925.81
2023-04-26T23:44:51.411Z,101937.06
2023-04-26T23:47:18.693Z,101929.09
2023-04-26T23:49:45.695Z,101934.56
2023-04-26T23:52:12.690Z,101935.78
2023-04-26T23:54:40.005Z,101940.56
2023-04-26T23:57:06.997Z,101942.31
2023-04-26T23:59:33.921Z,101934.84
